sensor_id;sensor_type;location;lat;lon;timestamp;P1;durP1;ratioP1;P2;durP2;ratioP2
37284;SDS011;23172;53.550;9.964;2023-09-12T00:01:36;159.88;;;55.10;;
37284;SDS011;23172;53.550;9.964;2023-09-12T00:06:38;154.70;;;52.00;;
37284;SDS011;23172;53.550;9.964;2023-09-12T00:11:40;104.63;;;44.60;;
37284;SDS011;23172;53.550;9.964;2023-09-12T00:16:43;105.60;;;29.35;;
37284;SDS011;23172;53.550;9.964;2023-09-12T00:21:45;104.15;;;28.88;;
37284;SDS011;23172;53.550;9.964;2023-09-12T00:26:47;114.82;;;26.42;;
37284;SDS011;23172;53.550;9.964;2023-09-12T00:31:50;80.68;;;22.77;;
37284;SDS011;23172;53.550;9.964;2023-09-12T00:36:52;101.30;;;28.23;;
37284;SDS011;23172;53.550;9.964;2023-09-12T00:41:54;109.43;;;25.40;;
37284;SDS011;23172;53.550;9.964;2023-09-12T00:46:57;111.25;;;28.98;;
37284;SDS011;23172;53.550;9.964;2023-09-12T00:51:59;89.05;;;24.15;;
37284;SDS011;23172;53.550;9.964;2023-09-12T00:57:02;106.88;;;29.63;;
37284;SDS011;23172;53.550;9.964;2023-09-12T01:02:07;107.07;;;27.92;;
37284;SDS011;23172;53.550;9.964;2023-09-12T01:07:09;99.88;;;30.88;;
37284;SDS011;23172;53.550;9.964;2023-09-12T01:12:11;68.95;;;24.52;;
37284;SDS011;23172;53.550;9.964;2023-09-12T01:17:15;88.15;;;28.42;;
37284;SDS011;23172;53.550;9.964;2023-09-12T01:27:56;65.38;;;24.67;;
37284;SDS011;23172;53.550;9.964;2023-09-12T01:33:01;67.38;;;27.02;;
37284;SDS011;23172;53.550;9.964;2023-09-12T01:38:03;70.95;;;22.55;;
37284;SDS011;23172;53.550;9.964;2023-09-12T01:43:06;72.07;;;22.52;;
37284;SDS011;23172;53.550;9.964;2023-09-12T01:48:09;59.25;;;25.98;;
37284;SDS011;23172;53.550;9.964;2023-09-12T01:53:13;70.30;;;21.95;;
37284;SDS011;23172;53.550;9.964;2023-09-12T01:58:16;46.08;;;20.65;;
37284;SDS011;23172;53.550;9.964;2023-09-12T02:03:18;58.78;;;24.65;;
37284;SDS011;23172;53.550;9.964;2023-09-12T02:08:20;56.03;;;21.73;;
37284;SDS011;23172;53.550;9.964;2023-09-12T02:13:23;91.90;;;27.70;;
37284;SDS011;23172;53.550;9.964;2023-09-12T02:18:25;55.60;;;21.42;;
37284;SDS011;23172;53.550;9.964;2023-09-12T02:23:27;50.65;;;22.90;;
37284;SDS011;23172;53.550;9.964;2023-09-12T02:28:30;56.42;;;19.17;;
37284;SDS011;23172;53.550;9.964;2023-09-12T02:33:32;46.67;;;20.23;;
37284;SDS011;23172;53.550;9.964;2023-09-12T02:38:34;46.58;;;20.60;;
37284;SDS011;23172;53.550;9.964;2023-09-12T02:43:37;42.85;;;22.42;;
37284;SDS011;23172;53.550;9.964;2023-09-12T02:48:39;46.05;;;21.50;;
37284;SDS011;23172;53.550;9.964;2023-09-12T02:53:40;46.20;;;24.70;;
37284;SDS011;23172;53.550;9.964;2023-09-12T02:58:45;28.15;;;21.40;;
37284;SDS011;23172;53.550;9.964;2023-09-12T03:03:47;50.67;;;23.98;;
37284;SDS011;23172;53.550;9.964;2023-09-12T03:08:50;59.28;;;22.00;;
37284;SDS011;23172;53.550;9.964;2023-09-12T03:13:53;58.03;;;21.33;;
37284;SDS011;23172;53.550;9.964;2023-09-12T03:18:55;56.35;;;22.00;;
37284;SDS011;23172;53.550;9.964;2023-09-12T03:23:57;28.63;;;21.20;;
37284;SDS011;23172;53.550;9.964;2023-09-12T03:29:00;31.08;;;18.60;;
37284;SDS011;23172;53.550;9.964;2023-09-12T03:34:02;46.92;;;20.95;;
37284;SDS011;23172;53.550;9.964;2023-09-12T03:39:04;30.13;;;19.70;;
37284;SDS011;23172;53.550;9.964;2023-09-12T03:44:09;31.10;;;21.40;;
37284;SDS011;23172;53.550;9.964;2023-09-12T03:49:11;46.00;;;21.10;;
37284;SDS011;23172;53.550;9.964;2023-09-12T03:54:13;53.83;;;21.33;;
37284;SDS011;23172;53.550;9.964;2023-09-12T03:59:16;49.97;;;21.77;;
37284;SDS011;23172;53.550;9.964;2023-09-12T04:04:18;55.05;;;24.75;;
37284;SDS011;23172;53.550;9.964;2023-09-12T04:09:20;26.33;;;20.92;;
37284;SDS011;23172;53.550;9.964;2023-09-12T04:14:23;66.45;;;23.23;;
37284;SDS011;23172;53.550;9.964;2023-09-12T04:19:25;24.33;;;21.77;;
37284;SDS011;23172;53.550;9.964;2023-09-12T04:24:27;59.55;;;25.00;;
37284;SDS011;23172;53.550;9.964;2023-09-12T04:29:31;40.80;;;23.15;;
37284;SDS011;23172;53.550;9.964;2023-09-12T04:34:34;38.95;;;22.35;;
37284;SDS011;23172;53.550;9.964;2023-09-12T04:39:35;42.28;;;25.48;;
37284;SDS011;23172;53.550;9.964;2023-09-12T04:44:39;41.45;;;24.67;;
37284;SDS011;23172;53.550;9.964;2023-09-12T04:49:43;32.78;;;26.00;;
37284;SDS011;23172;53.550;9.964;2023-09-12T04:54:45;27.95;;;23.20;;
37284;SDS011;23172;53.550;9.964;2023-09-12T04:59:48;28.25;;;21.38;;
37284;SDS011;23172;53.550;9.964;2023-09-12T05:04:51;22.05;;;19.75;;
37284;SDS011;23172;53.550;9.964;2023-09-12T05:09:53;27.33;;;22.10;;
37284;SDS011;23172;53.550;9.964;2023-09-12T05:14:56;41.55;;;21.40;;
37284;SDS011;23172;53.550;9.964;2023-09-12T05:19:59;47.17;;;22.05;;
37284;SDS011;23172;53.550;9.964;2023-09-12T05:25:00;54.85;;;21.02;;
37284;SDS011;23172;53.550;9.964;2023-09-12T05:30:04;19.70;;;17.52;;
37284;SDS011;23172;53.550;9.964;2023-09-12T05:35:07;21.55;;;19.35;;
37284;SDS011;23172;53.550;9.964;2023-09-12T05:40:09;34.50;;;21.52;;
37284;SDS011;23172;53.550;9.964;2023-09-12T05:45:13;39.53;;;19.50;;
37284;SDS011;23172;53.550;9.964;2023-09-12T05:50:15;41.83;;;21.75;;
37284;SDS011;23172;53.550;9.964;2023-09-12T05:55:16;22.58;;;20.17;;
37284;SDS011;23172;53.550;9.964;2023-09-12T06:00:20;24.75;;;21.92;;
37284;SDS011;23172;53.550;9.964;2023-09-12T06:05:22;60.30;;;20.05;;
37284;SDS011;23172;53.550;9.964;2023-09-12T06:10:23;44.15;;;21.77;;
37284;SDS011;23172;53.550;9.964;2023-09-12T06:15:27;22.35;;;18.77;;
37284;SDS011;23172;53.550;9.964;2023-09-12T06:20:28;28.63;;;24.38;;
37284;SDS011;23172;53.550;9.964;2023-09-12T06:25:31;37.67;;;22.25;;
37284;SDS011;23172;53.550;9.964;2023-09-12T06:30:34;38.70;;;18.83;;
37284;SDS011;23172;53.550;9.964;2023-09-12T06:35:36;35.00;;;20.63;;
37284;SDS011;23172;53.550;9.964;2023-09-12T06:40:38;42.40;;;23.55;;
37284;SDS011;23172;53.550;9.964;2023-09-12T06:45:41;46.38;;;22.42;;
37284;SDS011;23172;53.550;9.964;2023-09-12T06:50:43;42.88;;;21.17;;
37284;SDS011;23172;53.550;9.964;2023-09-12T06:55:45;49.92;;;24.17;;
37284;SDS011;23172;53.550;9.964;2023-09-12T07:00:48;46.60;;;22.23;;
37284;SDS011;23172;53.550;9.964;2023-09-12T07:05:50;36.95;;;20.65;;
37284;SDS011;23172;53.550;9.964;2023-09-12T07:10:52;51.85;;;23.45;;
37284;SDS011;23172;53.550;9.964;2023-09-12T07:15:56;35.55;;;23.05;;
37284;SDS011;23172;53.550;9.964;2023-09-12T07:20:58;38.60;;;20.70;;
37284;SDS011;23172;53.550;9.964;2023-09-12T07:26:00;45.15;;;22.88;;
37284;SDS011;23172;53.550;9.964;2023-09-12T07:31:04;48.92;;;20.00;;
37284;SDS011;23172;53.550;9.964;2023-09-12T07:36:06;36.28;;;21.02;;
37284;SDS011;23172;53.550;9.964;2023-09-12T07:41:08;55.03;;;22.30;;
37284;SDS011;23172;53.550;9.964;2023-09-12T07:46:11;54.63;;;21.58;;
37284;SDS011;23172;53.550;9.964;2023-09-12T07:51:13;42.22;;;20.02;;
37284;SDS011;23172;53.550;9.964;2023-09-12T07:56:17;22.50;;;19.27;;
37284;SDS011;23172;53.550;9.964;2023-09-12T08:01:21;66.47;;;22.83;;
37284;SDS011;23172;53.550;9.964;2023-09-12T08:06:22;48.40;;;19.67;;
37284;SDS011;23172;53.550;9.964;2023-09-12T08:11:25;63.35;;;19.52;;
37284;SDS011;23172;53.550;9.964;2023-09-12T08:16:29;33.38;;;19.50;;
37284;SDS011;23172;53.550;9.964;2023-09-12T08:21:32;69.88;;;20.63;;
37284;SDS011;23172;53.550;9.964;2023-09-12T08:26:33;55.42;;;21.30;;
37284;SDS011;23172;53.550;9.964;2023-09-12T08:32:00;55.28;;;20.23;;
37284;SDS011;23172;53.550;9.964;2023-09-12T08:37:02;23.63;;;21.10;;
37284;SDS011;23172;53.550;9.964;2023-09-12T08:42:04;46.20;;;22.75;;
37284;SDS011;23172;53.550;9.964;2023-09-12T08:47:09;49.17;;;20.30;;
37284;SDS011;23172;53.550;9.964;2023-09-12T08:52:12;41.92;;;21.92;;
37284;SDS011;23172;53.550;9.964;2023-09-12T08:57:14;69.78;;;24.13;;
37284;SDS011;23172;53.550;9.964;2023-09-12T09:02:18;36.42;;;19.90;;
37284;SDS011;23172;53.550;9.964;2023-09-12T09:07:20;58.83;;;20.83;;
37284;SDS011;23172;53.550;9.964;2023-09-12T09:12:23;42.20;;;21.98;;
37284;SDS011;23172;53.550;9.964;2023-09-12T09:17:26;73.60;;;21.90;;
37284;SDS011;23172;53.550;9.964;2023-09-12T09:22:29;84.55;;;22.38;;
37284;SDS011;23172;53.550;9.964;2023-09-12T09:27:34;99.20;;;27.55;;
37284;SDS011;23172;53.550;9.964;2023-09-12T09:32:37;76.68;;;27.85;;
37284;SDS011;23172;53.550;9.964;2023-09-12T09:37:39;84.22;;;34.63;;
37284;SDS011;23172;53.550;9.964;2023-09-12T09:42:42;76.80;;;27.70;;
37284;SDS011;23172;53.550;9.964;2023-09-12T09:47:45;103.07;;;32.10;;
37284;SDS011;23172;53.550;9.964;2023-09-12T09:52:50;98.40;;;30.20;;
37284;SDS011;23172;53.550;9.964;2023-09-12T09:57:55;102.40;;;35.45;;
37284;SDS011;23172;53.550;9.964;2023-09-12T10:02:58;130.85;;;32.95;;
37284;SDS011;23172;53.550;9.964;2023-09-12T10:08:02;122.63;;;29.30;;
37284;SDS011;23172;53.550;9.964;2023-09-12T10:13:09;97.30;;;42.17;;
37284;SDS011;23172;53.550;9.964;2023-09-12T10:18:14;105.75;;;44.35;;
37284;SDS011;23172;53.550;9.964;2023-09-12T10:23:21;126.30;;;37.10;;
37284;SDS011;23172;53.550;9.964;2023-09-12T10:28:28;112.13;;;36.10;;
37284;SDS011;23172;53.550;9.964;2023-09-12T10:33:32;128.25;;;31.60;;
37284;SDS011;23172;53.550;9.964;2023-09-12T10:38:35;120.95;;;31.25;;
37284;SDS011;23172;53.550;9.964;2023-09-12T10:43:42;98.43;;;32.25;;
37284;SDS011;23172;53.550;9.964;2023-09-12T10:48:48;116.72;;;36.13;;
37284;SDS011;23172;53.550;9.964;2023-09-12T10:53:50;121.40;;;32.13;;
37284;SDS011;23172;53.550;9.964;2023-09-12T10:59:09;103.30;;;36.10;;
37284;SDS011;23172;53.550;9.964;2023-09-12T11:04:32;94.70;;;28.52;;
37284;SDS011;23172;53.550;9.964;2023-09-12T11:09:34;85.88;;;31.70;;
37284;SDS011;23172;53.550;9.964;2023-09-12T11:14:36;118.35;;;29.25;;
37284;SDS011;23172;53.550;9.964;2023-09-12T11:20:07;129.75;;;31.40;;
37284;SDS011;23172;53.550;9.964;2023-09-12T11:25:18;117.15;;;30.40;;
37284;SDS011;23172;53.550;9.964;2023-09-12T11:30:23;129.50;;;31.27;;
37284;SDS011;23172;53.550;9.964;2023-09-12T11:35:28;120.22;;;27.65;;
37284;SDS011;23172;53.550;9.964;2023-09-12T11:40:41;116.85;;;31.25;;
37284;SDS011;23172;53.550;9.964;2023-09-12T11:45:44;88.88;;;33.28;;
37284;SDS011;23172;53.550;9.964;2023-09-12T11:50:53;93.65;;;31.48;;
37284;SDS011;23172;53.550;9.964;2023-09-12T11:55:56;102.10;;;34.97;;
37284;SDS011;23172;53.550;9.964;2023-09-12T12:00:59;113.72;;;34.13;;
37284;SDS011;23172;53.550;9.964;2023-09-12T12:06:03;110.50;;;33.53;;
37284;SDS011;23172;53.550;9.964;2023-09-12T12:11:06;94.30;;;27.17;;
37284;SDS011;23172;53.550;9.964;2023-09-12T12:16:14;103.35;;;31.13;;
37284;SDS011;23172;53.550;9.964;2023-09-12T12:21:18;93.47;;;29.30;;
37284;SDS011;23172;53.550;9.964;2023-09-12T12:26:20;112.32;;;30.95;;
37284;SDS011;23172;53.550;9.964;2023-09-12T12:31:22;85.85;;;19.63;;
37284;SDS011;23172;53.550;9.964;2023-09-12T12:36:26;58.95;;;27.20;;
37284;SDS011;23172;53.550;9.964;2023-09-12T12:41:28;82.35;;;25.42;;
37284;SDS011;23172;53.550;9.964;2023-09-12T12:46:30;63.22;;;31.17;;
37284;SDS011;23172;53.550;9.964;2023-09-12T12:51:33;80.47;;;26.63;;
37284;SDS011;23172;53.550;9.964;2023-09-12T12:56:35;93.20;;;26.52;;
37284;SDS011;23172;53.550;9.964;2023-09-12T13:01:38;77.00;;;28.67;;
37284;SDS011;23172;53.550;9.964;2023-09-12T13:06:42;124.68;;;30.50;;
37284;SDS011;23172;53.550;9.964;2023-09-12T13:11:44;113.72;;;32.38;;
37284;SDS011;23172;53.550;9.964;2023-09-12T13:16:47;87.13;;;30.10;;
37284;SDS011;23172;53.550;9.964;2023-09-12T13:21:50;90.97;;;29.27;;
37284;SDS011;23172;53.550;9.964;2023-09-12T13:26:52;80.65;;;25.70;;
37284;SDS011;23172;53.550;9.964;2023-09-12T13:31:54;98.68;;;28.58;;
37284;SDS011;23172;53.550;9.964;2023-09-12T13:36:57;90.75;;;28.35;;
37284;SDS011;23172;53.550;9.964;2023-09-12T13:41:58;94.78;;;30.75;;
37284;SDS011;23172;53.550;9.964;2023-09-12T13:47:03;129.23;;;31.75;;
37284;SDS011;23172;53.550;9.964;2023-09-12T13:52:06;128.82;;;30.48;;
37284;SDS011;23172;53.550;9.964;2023-09-12T13:57:08;98.68;;;27.52;;
37284;SDS011;23172;53.550;9.964;2023-09-12T14:02:10;100.72;;;26.77;;
37284;SDS011;23172;53.550;9.964;2023-09-12T14:07:13;115.53;;;33.10;;
37284;SDS011;23172;53.550;9.964;2023-09-12T14:12:15;97.90;;;28.65;;
37284;SDS011;23172;53.550;9.964;2023-09-12T14:17:17;75.65;;;30.70;;
37284;SDS011;23172;53.550;9.964;2023-09-12T14:22:20;104.82;;;44.50;;
37284;SDS011;23172;53.550;9.964;2023-09-12T14:27:22;88.55;;;31.60;;
37284;SDS011;23172;53.550;9.964;2023-09-12T14:32:24;106.47;;;29.27;;
37284;SDS011;23172;53.550;9.964;2023-09-12T14:37:27;122.22;;;37.38;;
37284;SDS011;23172;53.550;9.964;2023-09-12T14:42:29;99.35;;;34.75;;
37284;SDS011;23172;53.550;9.964;2023-09-12T14:47:31;126.60;;;35.03;;
37284;SDS011;23172;53.550;9.964;2023-09-12T14:52:34;192.50;;;55.67;;
37284;SDS011;23172;53.550;9.964;2023-09-12T14:57:36;152.05;;;53.90;;
37284;SDS011;23172;53.550;9.964;2023-09-12T15:02:39;182.27;;;64.90;;
37284;SDS011;23172;53.550;9.964;2023-09-12T15:07:43;164.15;;;58.47;;
37284;SDS011;23172;53.550;9.964;2023-09-12T15:12:45;190.68;;;57.70;;
37284;SDS011;23172;53.550;9.964;2023-09-12T15:17:47;195.25;;;66.70;;
37284;SDS011;23172;53.550;9.964;2023-09-12T15:22:50;222.88;;;64.80;;
37284;SDS011;23172;53.550;9.964;2023-09-12T15:27:52;177.57;;;60.15;;
37284;SDS011;23172;53.550;9.964;2023-09-12T15:32:54;213.27;;;55.58;;
37284;SDS011;23172;53.550;9.964;2023-09-12T15:37:57;229.15;;;62.65;;
37284;SDS011;23172;53.550;9.964;2023-09-12T15:43:02;230.82;;;50.30;;
37284;SDS011;23172;53.550;9.964;2023-09-12T15:48:04;300.83;;;70.40;;
37284;SDS011;23172;53.550;9.964;2023-09-12T15:53:08;220.93;;;73.53;;
37284;SDS011;23172;53.550;9.964;2023-09-12T15:58:10;199.55;;;57.03;;
37284;SDS011;23172;53.550;9.964;2023-09-12T16:03:12;256.65;;;71.53;;
37284;SDS011;23172;53.550;9.964;2023-09-12T16:08:16;265.90;;;55.72;;
37284;SDS011;23172;53.550;9.964;2023-09-12T16:13:18;258.42;;;67.90;;
37284;SDS011;23172;53.550;9.964;2023-09-12T16:18:20;224.77;;;57.65;;
37284;SDS011;23172;53.550;9.964;2023-09-12T16:23:23;233.10;;;60.83;;
37284;SDS011;23172;53.550;9.964;2023-09-12T16:28:27;243.48;;;60.28;;
37284;SDS011;23172;53.550;9.964;2023-09-12T16:33:29;228.40;;;51.13;;
37284;SDS011;23172;53.550;9.964;2023-09-12T16:38:34;224.35;;;55.10;;
37284;SDS011;23172;53.550;9.964;2023-09-12T16:43:36;160.93;;;54.78;;
37284;SDS011;23172;53.550;9.964;2023-09-12T16:48:38;235.02;;;62.97;;
37284;SDS011;23172;53.550;9.964;2023-09-12T16:53:43;228.50;;;58.85;;
37284;SDS011;23172;53.550;9.964;2023-09-12T16:58:45;189.60;;;52.00;;
37284;SDS011;23172;53.550;9.964;2023-09-12T17:03:47;187.98;;;58.25;;
37284;SDS011;23172;53.550;9.964;2023-09-12T17:09:00;197.35;;;57.53;;
37284;SDS011;23172;53.550;9.964;2023-09-12T17:14:03;191.18;;;54.60;;
37284;SDS011;23172;53.550;9.964;2023-09-12T17:19:05;200.20;;;60.22;;
37284;SDS011;23172;53.550;9.964;2023-09-12T17:24:08;127.43;;;44.15;;
37284;SDS011;23172;53.550;9.964;2023-09-12T17:29:11;114.63;;;46.05;;
37284;SDS011;23172;53.550;9.964;2023-09-12T17:34:13;121.70;;;41.47;;
37284;SDS011;23172;53.550;9.964;2023-09-12T17:39:17;70.97;;;31.92;;
37284;SDS011;23172;53.550;9.964;2023-09-12T17:44:18;96.38;;;28.35;;
37284;SDS011;23172;53.550;9.964;2023-09-12T17:49:20;79.78;;;33.60;;
37284;SDS011;23172;53.550;9.964;2023-09-12T17:54:23;109.60;;;25.33;;
37284;SDS011;23172;53.550;9.964;2023-09-12T17:59:25;74.45;;;29.35;;
37284;SDS011;23172;53.550;9.964;2023-09-12T18:04:27;93.75;;;26.27;;
37284;SDS011;23172;53.550;9.964;2023-09-12T18:09:30;136.15;;;26.25;;
37284;SDS011;23172;53.550;9.964;2023-09-12T18:14:32;127.22;;;30.73;;
37284;SDS011;23172;53.550;9.964;2023-09-12T18:19:34;124.43;;;25.80;;
37284;SDS011;23172;53.550;9.964;2023-09-12T18:24:37;105.18;;;30.95;;
37284;SDS011;23172;53.550;9.964;2023-09-12T18:29:39;80.35;;;23.17;;
37284;SDS011;23172;53.550;9.964;2023-09-12T18:34:41;112.63;;;24.75;;
37284;SDS011;23172;53.550;9.964;2023-09-12T18:39:44;97.20;;;33.00;;
37284;SDS011;23172;53.550;9.964;2023-09-12T18:44:46;94.38;;;32.03;;
37284;SDS011;23172;53.550;9.964;2023-09-12T18:49:48;67.05;;;27.73;;
37284;SDS011;23172;53.550;9.964;2023-09-12T18:54:51;65.80;;;26.20;;
37284;SDS011;23172;53.550;9.964;2023-09-12T18:59:53;99.60;;;27.98;;
37284;SDS011;23172;53.550;9.964;2023-09-12T19:04:55;116.40;;;31.17;;
37284;SDS011;23172;53.550;9.964;2023-09-12T19:10:01;93.55;;;29.30;;
37284;SDS011;23172;53.550;9.964;2023-09-12T19:15:04;113.22;;;29.85;;
37284;SDS011;23172;53.550;9.964;2023-09-12T19:20:06;60.67;;;26.23;;
37284;SDS011;23172;53.550;9.964;2023-09-12T19:25:10;99.90;;;24.75;;
37284;SDS011;23172;53.550;9.964;2023-09-12T19:30:12;98.88;;;29.67;;
37284;SDS011;23172;53.550;9.964;2023-09-12T19:35:14;51.67;;;21.55;;
37284;SDS011;23172;53.550;9.964;2023-09-12T19:40:17;67.55;;;21.20;;
37284;SDS011;23172;53.550;9.964;2023-09-12T19:45:19;65.47;;;20.38;;
37284;SDS011;23172;53.550;9.964;2023-09-12T19:50:21;60.35;;;24.23;;
37284;SDS011;23172;53.550;9.964;2023-09-12T19:55:24;43.85;;;19.38;;
37284;SDS011;23172;53.550;9.964;2023-09-12T20:00:26;67.15;;;25.27;;
37284;SDS011;23172;53.550;9.964;2023-09-12T20:05:28;57.20;;;20.42;;
37284;SDS011;23172;53.550;9.964;2023-09-12T20:10:33;57.90;;;21.55;;
37284;SDS011;23172;53.550;9.964;2023-09-12T20:15:35;47.15;;;22.30;;
37284;SDS011;23172;53.550;9.964;2023-09-12T20:20:38;28.95;;;16.17;;
37284;SDS011;23172;53.550;9.964;2023-09-12T20:25:42;64.95;;;20.42;;
37284;SDS011;23172;53.550;9.964;2023-09-12T20:30:43;26.60;;;17.45;;
37284;SDS011;23172;53.550;9.964;2023-09-12T20:35:45;47.80;;;21.42;;
37284;SDS011;23172;53.550;9.964;2023-09-12T20:40:48;48.50;;;22.30;;
37284;SDS011;23172;53.550;9.964;2023-09-12T20:45:51;50.58;;;18.02;;
37284;SDS011;23172;53.550;9.964;2023-09-12T20:50:54;33.45;;;17.05;;
37284;SDS011;23172;53.550;9.964;2023-09-12T20:55:57;41.97;;;21.20;;
37284;SDS011;23172;53.550;9.964;2023-09-12T21:00:59;44.42;;;15.95;;
37284;SDS011;23172;53.550;9.964;2023-09-12T21:06:01;28.33;;;17.02;;
37284;SDS011;23172;53.550;9.964;2023-09-12T21:11:05;26.02;;;18.25;;
37284;SDS011;23172;53.550;9.964;2023-09-12T21:16:07;48.35;;;18.30;;
37284;SDS011;23172;53.550;9.964;2023-09-12T21:21:08;33.97;;;19.45;;
37284;SDS011;23172;53.550;9.964;2023-09-12T21:26:12;29.52;;;19.90;;
37284;SDS011;23172;53.550;9.964;2023-09-12T21:31:13;60.38;;;20.90;;
37284;SDS011;23172;53.550;9.964;2023-09-12T21:36:16;41.03;;;20.27;;
37284;SDS011;23172;53.550;9.964;2023-09-12T21:41:19;68.10;;;22.83;;
37284;SDS011;23172;53.550;9.964;2023-09-12T21:46:21;33.65;;;19.08;;
37284;SDS011;23172;53.550;9.964;2023-09-12T21:51:22;51.13;;;20.80;;
37284;SDS011;23172;53.550;9.964;2023-09-12T21:56:26;53.95;;;17.70;;
37284;SDS011;23172;53.550;9.964;2023-09-12T22:01:28;58.03;;;17.48;;
37284;SDS011;23172;53.550;9.964;2023-09-12T22:06:29;51.78;;;18.17;;
37284;SDS011;23172;53.550;9.964;2023-09-12T22:11:33;43.25;;;18.92;;
37284;SDS011;23172;53.550;9.964;2023-09-12T22:16:34;31.77;;;16.63;;
37284;SDS011;23172;53.550;9.964;2023-09-12T22:21:36;35.08;;;14.77;;
37284;SDS011;23172;53.550;9.964;2023-09-12T22:26:39;54.58;;;15.52;;
37284;SDS011;23172;53.550;9.964;2023-09-12T22:31:42;60.75;;;18.70;;
37284;SDS011;23172;53.550;9.964;2023-09-12T22:36:44;32.60;;;17.30;;
37284;SDS011;23172;53.550;9.964;2023-09-12T22:41:47;38.63;;;15.60;;
37284;SDS011;23172;53.550;9.964;2023-09-12T22:46:49;38.08;;;15.32;;
37284;SDS011;23172;53.550;9.964;2023-09-12T22:51:51;34.60;;;16.85;;
37284;SDS011;23172;53.550;9.964;2023-09-12T22:56:54;22.58;;;15.07;;
37284;SDS011;23172;53.550;9.964;2023-09-12T23:01:56;34.20;;;17.40;;
37284;SDS011;23172;53.550;9.964;2023-09-12T23:06:58;45.03;;;17.27;;
37284;SDS011;23172;53.550;9.964;2023-09-12T23:12:02;27.30;;;17.52;;
37284;SDS011;23172;53.550;9.964;2023-09-12T23:17:05;43.92;;;19.33;;
37284;SDS011;23172;53.550;9.964;2023-09-12T23:22:06;66.40;;;19.30;;
37284;SDS011;23172;53.550;9.964;2023-09-12T23:27:10;58.50;;;17.70;;
37284;SDS011;23172;53.550;9.964;2023-09-12T23:32:12;38.83;;;16.77;;
37284;SDS011;23172;53.550;9.964;2023-09-12T23:37:13;33.55;;;15.93;;
37284;SDS011;23172;53.550;9.964;2023-09-12T23:42:17;50.75;;;16.52;;
37284;SDS011;23172;53.550;9.964;2023-09-12T23:47:20;33.75;;;18.08;;
37284;SDS011;23172;53.550;9.964;2023-09-12T23:52:22;32.92;;;15.73;;
37284;SDS011;23172;53.550;9.964;2023-09-12T23:57:25;33.95;;;15.65;;
